Time;durP1;ratioP1;P1;durP2;ratioP2;P2;SDS_P1;SDS_P2;PMS_P1;PMS_P2;Temp;Humidity;BMP_temperature;BMP_pressure;BME280_temperature;BME280_humidity;BME280_pressure;Samples;Min_cycle;Max_cycle;Signal;HPM_P1;HPM_P2
2021/06/11 00:00:06;;;;;;;2.17;1.47;;;15.90;98.00;;;;;;5072626;28;20496;-67
2021/06/11 00:02:33;;;;;;;3.13;1.70;;;16.00;98.00;;;;;;5069294;28;20541;-67
2021/06/11 00:05:01;;;;;;;1.60;1.40;;;16.00;98.00;;;;;;5072543;28;20830;-67
2021/06/11 00:07:27;;;;;;;1.97;1.73;;;16.00;98.00;;;;;;5070160;28;20872;-68
2021/06/11 00:09:54;;;;;;;2.80;1.40;;;16.00;98.00;;;;;;5072449;28;20457;-67
2021/06/11 00:12:20;;;;;;;1.30;1.23;;;15.90;98.00;;;;;;5068315;28;20459;-67
2021/06/11 00:14:47;;;;;;;2.33;1.60;;;15.90;98.00;;;;;;5072216;28;20966;-67
2021/06/11 00:17:13;;;;;;;1.67;1.20;;;16.00;98.00;;;;;;5070383;28;20497;-68
2021/06/11 00:19:40;;;;;;;1.63;1.20;;;15.90;98.00;;;;;;5072298;28;20876;-67
2021/06/11 00:22:08;;;;;;;1.47;1.30;;;15.70;98.00;;;;;;5070297;28;20460;-67
2021/06/11 00:24:34;;;;;;;1.60;1.43;;;15.60;98.00;;;;;;5071661;28;20542;-66
2021/06/11 00:27:01;;;;;;;3.10;1.50;;;15.80;98.00;;;;;;5069883;28;20484;-67
2021/06/11 00:29:27;;;;;;;1.20;1.00;;;15.70;98.00;;;;;;5072097;28;20496;-69
2021/06/11 00:31:54;;;;;;;3.10;1.80;;;15.70;98.00;;;;;;5069841;28;20468;-68
2021/06/11 00:34:20;;;;;;;3.63;1.50;;;15.60;98.00;;;;;;5072029;28;20456;-67
2021/06/11 00:36:46;;;;;;;1.30;1.10;;;15.60;98.00;;;;;;5069795;28;20484;-67
2021/06/11 00:39:14;;;;;;;1.50;1.30;;;15.60;98.00;;;;;;5071771;28;20500;-68
2021/06/11 00:41:41;;;;;;;3.20;1.77;;;15.70;98.00;;;;;;5070033;28;20558;-67
2021/06/11 00:44:08;;;;;;;2.23;1.73;;;15.60;98.00;;;;;;5072002;28;20468;-67
2021/06/11 00:46:34;;;;;;;1.90;1.33;;;15.50;98.00;;;;;;5069771;28;20575;-67
2021/06/11 00:49:01;;;;;;;1.40;1.20;;;15.60;98.00;;;;;;5072009;28;20494;-67
2021/06/11 00:51:27;;;;;;;1.40;1.23;;;15.50;98.00;;;;;;5069456;28;20453;-67
2021/06/11 00:53:55;;;;;;;1.57;1.33;;;15.50;98.00;;;;;;5071492;28;20456;-67
2021/06/11 00:56:23;;;;;;;1.97;1.30;;;15.40;98.00;;;;;;5069517;28;20461;-68
2021/06/11 00:58:50;;;;;;;1.87;1.30;;;15.30;98.00;;;;;;5071641;28;20774;-67
2021/06/11 01:01:16;;;;;;;1.70;1.30;;;15.40;98.00;;;;;;5069528;28;20464;-67
2021/06/11 01:03:43;;;;;;;1.50;1.20;;;15.50;98.00;;;;;;5071322;28;20492;-67
2021/06/11 01:06:10;;;;;;;1.63;1.40;;;15.60;98.00;;;;;;5069292;28;20848;-67
2021/06/11 01:08:37;;;;;;;1.67;1.27;;;15.70;98.00;;;;;;5071153;28;20518;-67
2021/06/11 01:11:04;;;;;;;1.50;1.20;;;15.70;98.00;;;;;;5067962;28;20475;-67
2021/06/11 01:13:32;;;;;;;1.50;1.50;;;15.80;98.00;;;;;;5071140;28;20464;-67
2021/06/11 01:15:59;;;;;;;2.33;1.30;;;15.80;98.00;;;;;;5069987;28;20464;-67
2021/06/11 01:18:26;;;;;;;2.07;1.30;;;15.80;98.00;;;;;;5071162;28;20451;-68
2021/06/11 01:20:52;;;;;;;1.70;1.30;;;15.80;98.00;;;;;;5070981;28;20821;-67
2021/06/11 01:23:40;;;;;;;2.37;1.60;;;15.90;98.00;;;;;;5067732;28;20460;-67
2021/06/11 01:26:38;;;;;;;1.73;1.40;;;15.80;98.00;;;;;;5068759;28;20523;-67
2021/06/11 01:29:06;;;;;;;1.47;1.17;;;15.90;98.00;;;;;;5070983;28;20820;-66
2021/06/11 01:31:36;;;;;;;1.93;1.37;;;15.80;98.00;;;;;;5068807;28;20457;-67
2021/06/11 01:34:07;;;;;;;1.50;1.50;;;15.80;98.00;;;;;;5069618;28;20503;-67
2021/06/11 01:36:39;;;;;;;1.83;1.37;;;15.70;98.00;;;;;;5067646;28;20527;-66
2021/06/11 01:39:08;;;;;;;1.40;1.30;;;15.70;98.00;;;;;;5069499;28;20500;-67
2021/06/11 01:41:39;;;;;;;1.50;1.37;;;15.60;98.00;;;;;;5068868;28;20482;-67
2021/06/11 01:44:08;;;;;;;1.60;1.53;;;15.60;98.00;;;;;;5070768;28;20457;-67
2021/06/11 01:46:35;;;;;;;2.80;1.40;;;15.50;98.00;;;;;;5068782;28;20887;-67
2021/06/11 01:49:03;;;;;;;1.87;1.40;;;15.50;98.00;;;;;;5070770;28;20826;-68
2021/06/11 01:51:31;;;;;;;1.50;1.20;;;15.50;98.00;;;;;;5068629;28;20451;-67
2021/06/11 01:54:00;;;;;;;1.20;1.20;;;15.50;98.00;;;;;;5070727;28;20538;-68
2021/06/11 01:56:28;;;;;;;2.13;1.43;;;15.50;98.00;;;;;;5068774;28;20538;-67
2021/06/11 01:58:57;;;;;;;1.57;1.27;;;15.40;98.00;;;;;;5070733;28;20464;-67
2021/06/11 02:01:24;;;;;;;1.80;1.47;;;15.40;98.00;;;;;;5068792;28;20811;-68
2021/06/11 02:03:53;;;;;;;2.30;1.50;;;15.40;98.00;;;;;;5070661;28;20479;-67
2021/06/11 02:06:21;;;;;;;1.80;1.33;;;15.30;98.00;;;;;;5068399;28;20610;-69
2021/06/11 02:08:51;;;;;;;1.30;1.10;;;15.40;98.00;;;;;;5070341;28;20460;-68
2021/06/11 02:11:18;;;;;;;1.80;1.40;;;15.40;98.00;;;;;;5068399;28;20456;-67
2021/06/11 02:13:46;;;;;;;1.67;1.50;;;15.30;98.00;;;;;;5070401;28;20493;-67
2021/06/11 02:16:16;;;;;;;2.40;1.53;;;15.10;98.00;;;;;;5068403;28;20462;-67
2021/06/11 02:18:43;;;;;;;1.70;1.30;;;15.00;98.00;;;;;;5070424;28;20456;-67
2021/06/11 02:21:11;;;;;;;1.50;1.20;;;14.90;98.00;;;;;;5068418;28;20485;-67
2021/06/11 02:23:37;;;;;;;1.93;1.10;;;14.80;98.00;;;;;;5070434;28;20471;-67
2021/06/11 02:26:05;;;;;;;2.57;1.47;;;14.90;98.00;;;;;;5070047;28;20944;-67
2021/06/11 02:28:32;;;;;;;1.63;1.30;;;15.00;98.00;;;;;;5070325;28;20467;-67
2021/06/11 02:31:02;;;;;;;1.57;1.40;;;14.90;98.00;;;;;;5070385;28;20474;-67
2021/06/11 02:33:30;;;;;;;1.30;1.30;;;14.90;98.00;;;;;;5068017;28;20463;-67
2021/06/11 02:35:57;;;;;;;1.80;1.30;;;14.80;98.00;;;;;;5072894;28;20495;-66
2021/06/11 02:38:24;;;;;;;1.50;1.20;;;14.90;98.00;;;;;;5072017;28;20981;-67
2021/06/11 02:40:52;;;;;;;7.03;1.50;;;14.70;98.00;;;;;;5074189;28;20862;-67
2021/06/11 02:43:23;;;;;;;1.17;1.10;;;14.60;98.00;;;;;;5071967;28;20458;-67
2021/06/11 02:45:56;;;;;;;2.30;1.57;;;14.60;98.00;;;;;;5074025;28;20496;-67
2021/06/11 02:48:29;;;;;;;1.20;1.20;;;14.70;98.00;;;;;;5071695;28;20458;-67
2021/06/11 02:51:03;;;;;;;2.60;1.53;;;14.90;98.00;;;;;;5073875;28;20455;-68
2021/06/11 02:53:31;;;;;;;2.60;1.23;;;14.80;98.00;;;;;;5071786;28;20955;-67
2021/06/11 02:56:02;;;;;;;1.40;1.23;;;14.80;98.00;;;;;;5073739;28;20810;-68
2021/06/11 02:58:39;;;;;;;2.90;1.67;;;14.80;98.00;;;;;;5071780;28;20455;-67
2021/06/11 03:01:07;;;;;;;1.60;1.40;;;14.60;98.00;;;;;;5073503;28;20871;-67
2021/06/11 03:03:38;;;;;;;1.80;1.43;;;14.50;98.00;;;;;;5072339;28;20483;-67
2021/06/11 03:06:09;;;;;;;1.77;1.20;;;14.50;98.00;;;;;;5073686;28;20541;-67
2021/06/11 03:08:38;;;;;;;1.43;1.30;;;14.60;98.00;;;;;;5073735;28;20463;-67
2021/06/11 03:11:13;;;;;;;1.40;1.23;;;14.70;98.00;;;;;;5072544;28;20463;-66
2021/06/11 03:13:42;;;;;;;1.80;1.33;;;14.80;98.00;;;;;;5073640;28;20464;-67
2021/06/11 03:16:10;;;;;;;1.73;1.20;;;14.90;98.00;;;;;;5072783;28;20464;-69
2021/06/11 03:18:40;;;;;;;1.30;1.20;;;15.00;98.00;;;;;;5073644;28;20495;-67
2021/06/11 03:21:16;;;;;;;1.20;1.00;;;14.90;98.00;;;;;;5073196;28;20981;-67
2021/06/11 03:23:47;;;;;;;1.70;1.20;;;14.80;98.00;;;;;;5073316;28;20472;-67
2021/06/11 03:26:18;;;;;;;1.70;1.40;;;14.90;98.00;;;;;;5071519;28;20465;-67
2021/06/11 03:28:49;;;;;;;1.20;1.00;;;14.90;98.00;;;;;;5073591;28;20498;-66
2021/06/11 03:31:20;;;;;;;4.80;1.53;;;14.80;98.00;;;;;;5071503;28;20455;-67
2021/06/11 03:33:49;;;;;;;1.70;1.20;;;14.60;98.00;;;;;;5073279;28;20589;-67
2021/06/11 03:36:22;;;;;;;1.53;1.47;;;14.70;98.00;;;;;;5071118;28;20459;-66
2021/06/11 03:38:53;;;;;;;3.27;1.60;;;14.80;98.00;;;;;;5073255;28;20834;-67
2021/06/11 03:41:20;;;;;;;2.07;1.53;;;14.90;98.00;;;;;;5071112;28;20461;-67
2021/06/11 03:43:48;;;;;;;2.60;1.80;;;15.10;98.00;;;;;;5073147;28;20476;-66
2021/06/11 03:46:16;;;;;;;1.30;1.10;;;15.00;98.00;;;;;;5069602;28;20464;-67
2021/06/11 03:48:44;;;;;;;2.00;1.47;;;15.00;98.00;;;;;;5072650;28;20489;-67
2021/06/11 03:51:12;;;;;;;1.30;1.27;;;15.00;98.00;;;;;;5071243;28;20486;-67
2021/06/11 03:53:42;;;;;;;1.40;1.17;;;14.90;98.00;;;;;;5071974;28;20462;-67
2021/06/11 03:56:12;;;;;;;1.50;1.33;;;14.80;98.00;;;;;;5072824;28;20542;-67
2021/06/11 03:58:41;;;;;;;1.43;1.37;;;14.70;98.00;;;;;;5071694;28;20453;-67
2021/06/11 04:01:11;;;;;;;2.07;1.50;;;14.50;98.00;;;;;;5072581;28;20469;-67
2021/06/11 04:03:41;;;;;;;1.80;1.50;;;14.60;98.00;;;;;;5069720;28;20525;-67
2021/06/11 04:06:11;;;;;;;1.20;1.00;;;14.80;98.00;;;;;;5072322;28;20468;-67
2021/06/11 04:08:39;;;;;;;1.30;1.20;;;14.90;98.00;;;;;;5070808;28;20520;-67
2021/06/11 04:11:08;;;;;;;2.37;1.73;;;15.00;98.00;;;;;;5072509;28;20467;-67
2021/06/11 04:13:44;;;;;;;2.07;1.30;;;15.00;98.00;;;;;;5070035;28;20884;-67
2021/06/11 04:16:18;;;;;;;2.33;1.43;;;15.00;98.00;;;;;;5072709;28;20513;-67
2021/06/11 04:18:46;;;;;;;1.70;1.30;;;15.10;98.00;;;;;;5071378;28;20468;-68
2021/06/11 04:21:18;;;;;;;1.20;1.10;;;15.10;98.00;;;;;;5070762;28;20454;-66
2021/06/11 04:23:47;;;;;;;1.63;1.20;;;15.10;98.00;;;;;;5072171;28;20470;-67
2021/06/11 04:26:16;;;;;;;1.30;1.30;;;15.00;98.00;;;;;;5071837;28;20823;-68
2021/06/11 04:28:44;;;;;;;1.60;1.40;;;15.10;98.00;;;;;;5072587;28;20560;-67
2021/06/11 04:31:10;;;;;;;1.73;1.20;;;15.10;98.00;;;;;;5072999;28;20456;-67
2021/06/11 04:33:37;;;;;;;1.60;1.30;;;15.10;98.00;;;;;;5070576;28;20511;-66
2021/06/11 04:36:04;;;;;;;1.53;1.43;;;15.20;98.00;;;;;;5073271;28;20525;-66
2021/06/11 04:38:45;;;;;;;1.30;1.20;;;15.40;98.00;;;;;;5068962;28;20459;-67
2021/06/11 04:41:13;;;;;;;2.13;1.47;;;15.20;98.00;;;;;;5072148;28;20464;-67
2021/06/11 04:43:40;;;;;;;1.20;1.10;;;15.10;98.00;;;;;;5069963;28;20488;-66
2021/06/11 04:46:06;;;;;;;1.30;1.03;;;15.00;98.00;;;;;;5071931;28;20461;-66
2021/06/11 04:48:32;;;;;;;1.17;1.03;;;15.10;98.00;;;;;;5069981;28;20823;-67
2021/06/11 04:50:59;;;;;;;2.33;1.60;;;15.10;98.00;;;;;;5071895;28;20520;-67
2021/06/11 04:53:26;;;;;;;2.20;1.40;;;15.20;98.00;;;;;;5068550;28;20455;-67
2021/06/11 04:55:52;;;;;;;1.40;1.30;;;15.30;98.00;;;;;;5071421;28;20837;-68
2021/06/11 04:58:20;;;;;;;1.70;1.10;;;15.20;98.00;;;;;;5068989;28;20977;-69
2021/06/11 05:00:48;;;;;;;1.73;1.20;;;15.10;98.00;;;;;;5071536;28;20893;-69
2021/06/11 05:03:14;;;;;;;2.23;1.73;;;14.90;98.00;;;;;;5069169;28;20968;-71
2021/06/11 05:05:40;;;;;;;1.50;1.30;;;15.00;98.00;;;;;;5071743;28;20811;-68
2021/06/11 05:08:07;;;;;;;1.60;1.30;;;15.00;98.00;;;;;;5069401;28;20524;-68
2021/06/11 05:10:34;;;;;;;1.70;1.43;;;15.10;98.00;;;;;;5070054;28;20477;-69
2021/06/11 05:13:00;;;;;;;2.03;1.30;;;15.20;98.00;;;;;;5068112;28;20456;-68
2021/06/11 05:15:28;;;;;;;1.97;1.40;;;15.30;98.00;;;;;;5070018;28;20867;-68
2021/06/11 05:17:55;;;;;;;1.30;1.20;;;15.30;98.00;;;;;;5069074;28;20489;-69
2021/06/11 05:20:21;;;;;;;2.07;1.50;;;15.50;98.00;;;;;;5071127;28;20500;-69
2021/06/11 05:22:47;;;;;;;1.97;1.50;;;15.50;98.00;;;;;;5069015;28;20492;-69
2021/06/11 05:25:14;;;;;;;1.60;1.30;;;15.60;98.00;;;;;;5070893;28;20733;-69
2021/06/11 05:27:41;;;;;;;1.30;1.23;;;15.80;98.00;;;;;;5068827;28;20590;-68
2021/06/11 05:30:08;;;;;;;1.13;1.00;;;15.90;98.00;;;;;;5069760;28;20958;-69
2021/06/11 05:32:36;;;;;;;2.83;1.40;;;15.80;98.00;;;;;;5068634;28;20497;-68
2021/06/11 05:35:03;;;;;;;1.40;1.23;;;15.70;98.00;;;;;;5070993;28;20461;-66
2021/06/11 05:37:29;;;;;;;2.03;1.73;;;15.70;98.00;;;;;;5068645;28;20495;-67
2021/06/11 05:39:56;;;;;;;1.50;1.40;;;15.60;98.00;;;;;;5069718;28;20471;-67
2021/06/11 05:42:22;;;;;;;1.20;1.20;;;15.60;98.00;;;;;;5068810;28;20493;-69
2021/06/11 05:44:49;;;;;;;1.77;1.43;;;15.80;98.00;;;;;;5070871;28;20876;-69
2021/06/11 05:47:15;;;;;;;1.50;1.30;;;15.80;98.00;;;;;;5068918;28;20510;-69
2021/06/11 05:49:46;;;;;;;1.70;1.20;;;15.90;98.00;;;;;;5070908;28;20463;-68
2021/06/11 05:52:12;;;;;;;1.50;1.47;;;16.10;98.00;;;;;;5068804;28;20460;-69
2021/06/11 05:54:45;;;;;;;2.87;1.63;;;16.10;98.00;;;;;;5070881;28;20456;-66
2021/06/11 05:57:11;;;;;;;2.20;1.27;;;16.30;98.00;;;;;;5068695;28;20467;-67
2021/06/11 05:59:38;;;;;;;2.90;1.70;;;16.40;98.00;;;;;;5070630;28;20942;-68
2021/06/11 06:02:04;;;;;;;3.27;1.47;;;16.50;98.00;;;;;;5067905;28;20967;-67
2021/06/11 06:04:32;;;;;;;1.60;1.30;;;16.50;98.00;;;;;;5070646;28;20963;-67
2021/06/11 06:07:00;;;;;;;1.30;1.27;;;16.50;98.00;;;;;;5068851;28;20510;-66
2021/06/11 06:09:29;;;;;;;1.60;1.40;;;16.60;98.00;;;;;;5070707;28;21025;-69
2021/06/11 06:11:56;;;;;;;1.43;1.40;;;16.70;98.00;;;;;;5073047;28;20449;-67
2021/06/11 06:14:24;;;;;;;1.50;1.37;;;16.80;98.00;;;;;;5074711;28;20460;-67
2021/06/11 06:16:50;;;;;;;2.03;1.90;;;16.90;98.00;;;;;;5072715;28;20485;-68
2021/06/11 06:19:17;;;;;;;1.47;1.23;;;17.10;98.00;;;;;;5074636;28;20969;-67
2021/06/11 06:21:43;;;;;;;2.13;1.50;;;17.20;98.00;;;;;;5071034;28;20924;-70
2021/06/11 06:24:14;;;;;;;1.50;1.40;;;17.30;98.00;;;;;;5074431;28;20465;-67
2021/06/11 06:26:41;;;;;;;2.33;1.50;;;17.40;98.00;;;;;;5072334;28;21063;-67
2021/06/11 06:29:09;;;;;;;1.50;1.30;;;17.50;98.00;;;;;;5074411;28;20457;-68
2021/06/11 06:31:36;;;;;;;1.40;1.30;;;17.50;98.00;;;;;;5070895;28;20970;-67
2021/06/11 06:34:03;;;;;;;1.20;1.17;;;17.60;98.00;;;;;;5074346;28;20802;-68
2021/06/11 06:36:29;;;;;;;1.40;1.33;;;17.70;98.00;;;;;;5072815;28;20461;-68
2021/06/11 06:38:59;;;;;;;1.93;1.43;;;17.80;98.00;;;;;;5074235;28;20471;-67
2021/06/11 06:41:27;;;;;;;1.50;1.40;;;17.90;98.00;;;;;;5073111;28;20457;-67
2021/06/11 06:43:54;;;;;;;2.70;1.50;;;17.90;98.00;;;;;;5072615;28;20460;-68
2021/06/11 06:46:22;;;;;;;4.70;1.70;;;18.00;98.00;;;;;;5073912;28;20495;-68
2021/06/11 06:48:49;;;;;;;1.70;1.60;;;18.20;98.00;;;;;;5072082;28;20500;-70
2021/06/11 06:51:16;;;;;;;1.70;1.40;;;18.30;98.00;;;;;;5073875;28;20461;-67
2021/06/11 06:53:43;;;;;;;2.40;1.63;;;18.40;98.00;;;;;;5071926;28;20452;-68
2021/06/11 06:56:10;;;;;;;2.23;1.90;;;18.40;98.00;;;;;;5072554;28;20470;-69
2021/06/11 06:58:39;;;;;;;1.60;1.20;;;18.40;98.00;;;;;;5071530;28;20453;-68
2021/06/11 07:01:06;;;;;;;1.47;1.33;;;18.50;98.00;;;;;;5074021;28;20457;-68
2021/06/11 07:03:32;;;;;;;1.43;1.20;;;18.60;98.00;;;;;;5071892;28;20468;-68
2021/06/11 07:05:59;;;;;;;2.53;1.63;;;18.60;98.00;;;;;;5073746;28;20821;-69
2021/06/11 07:08:30;;;;;;;1.30;1.30;;;18.70;98.00;;;;;;5071903;28;20893;-68
2021/06/11 07:10:57;;;;;;;2.33;1.67;;;18.80;98.00;;;;;;5073829;28;20453;-69
2021/06/11 07:13:23;;;;;;;1.60;1.43;;;18.90;98.00;;;;;;5071728;28;20600;-69
2021/06/11 07:15:52;;;;;;;2.80;1.87;;;19.00;98.00;;;;;;5073608;28;20942;-69
2021/06/11 07:18:18;;;;;;;2.47;1.70;;;19.10;98.00;;;;;;5071416;28;20457;-68
2021/06/11 07:20:45;;;;;;;1.60;1.30;;;19.20;98.00;;;;;;5073387;28;20461;-69
2021/06/11 07:23:12;;;;;;;1.60;1.37;;;19.20;98.00;;;;;;5069923;28;20468;-69
2021/06/11 07:25:38;;;;;;;1.73;1.10;;;19.40;98.00;;;;;;5071891;28;20464;-69
2021/06/11 07:28:05;;;;;;;2.13;1.60;;;19.50;98.00;;;;;;5068785;28;20481;-70
2021/06/11 07:30:32;;;;;;;1.60;1.30;;;19.60;98.00;;;;;;5072419;28;20460;-69
2021/06/11 07:33:00;;;;;;;1.87;1.77;;;19.60;98.00;;;;;;5070963;28;20993;-68
2021/06/11 07:35:27;;;;;;;2.40;1.80;;;19.60;98.00;;;;;;5072643;28;20457;-70
2021/06/11 07:37:53;;;;;;;1.40;1.20;;;19.70;98.00;;;;;;5070964;28;20457;-70
2021/06/11 07:40:20;;;;;;;2.43;1.70;;;19.80;98.00;;;;;;5072491;28;20498;-69
2021/06/11 07:42:46;;;;;;;2.03;1.70;;;19.80;98.00;;;;;;5070577;28;20839;-69
2021/06/11 07:45:13;;;;;;;1.63;1.37;;;19.80;98.00;;;;;;5071540;28;20508;-68
2021/06/11 07:47:40;;;;;;;1.60;1.43;;;19.90;98.00;;;;;;5070518;28;20527;-68
2021/06/11 07:50:09;;;;;;;2.23;1.70;;;19.90;98.00;;;;;;5072331;28;20465;-69
2021/06/11 07:52:36;;;;;;;2.07;1.63;;;20.00;98.00;;;;;;5069177;28;20488;-70
2021/06/11 07:55:04;;;;;;;1.70;1.70;;;20.10;98.00;;;;;;5072248;28;20513;-71
2021/06/11 07:57:31;;;;;;;1.63;1.57;;;20.20;98.00;;;;;;5068594;28;20457;-70
2021/06/11 07:59:57;;;;;;;2.10;1.73;;;20.30;98.00;;;;;;5052140;28;20469;-71
2021/06/11 08:02:23;;;;;;;1.57;1.30;;;20.40;98.00;;;;;;5049959;28;20503;-69
2021/06/11 08:04:53;;;;;;;1.90;1.50;;;20.50;98.00;;;;;;5051961;28;20454;-70
2021/06/11 08:07:21;;;;;;;1.70;1.50;;;20.70;98.00;;;;;;5049263;28;20506;-70
2021/06/11 08:09:47;;;;;;;2.03;1.50;;;20.70;98.00;;;;;;5052230;28;20457;-70
2021/06/11 08:12:14;;;;;;;3.40;1.60;;;20.80;98.00;;;;;;5050026;28;20652;-70
2021/06/11 08:14:41;;;;;;;1.43;1.37;;;20.90;98.00;;;;;;5074503;28;20448;-70
2021/06/11 08:17:08;;;;;;;1.50;1.50;;;21.10;98.00;;;;;;5069691;28;20942;-70
2021/06/11 08:19:34;;;;;;;2.13;1.53;;;21.20;98.00;;;;;;5072821;28;20511;-70
2021/06/11 08:22:01;;;;;;;2.73;1.70;;;21.30;98.00;;;;;;5069380;28;20662;-71
2021/06/11 08:24:30;;;;;;;2.17;2.00;;;21.40;98.00;;;;;;5072169;28;20507;-70
2021/06/11 08:26:56;;;;;;;2.10;1.90;;;21.60;98.00;;;;;;5069899;28;20491;-70
2021/06/11 08:29:24;;;;;;;1.87;1.70;;;21.70;98.00;;;;;;5072392;28;20471;-72
2021/06/11 08:31:50;;;;;;;1.63;1.53;;;21.90;98.00;;;;;;5069190;28;20508;-72
2021/06/11 08:34:17;;;;;;;2.90;2.33;;;22.00;98.00;;;;;;5071711;28;20952;-71
2021/06/11 08:36:44;;;;;;;2.00;1.80;;;22.10;98.00;;;;;;5069946;28;20558;-72
2021/06/11 08:39:11;;;;;;;2.17;1.50;;;22.10;98.00;;;;;;5070463;28;20461;-72
2021/06/11 08:41:40;;;;;;;2.50;1.70;;;22.10;98.00;;;;;;5071849;28;20518;-72
2021/06/11 08:44:07;;;;;;;1.63;1.50;;;22.20;98.00;;;;;;5069110;28;20453;-71
2021/06/11 08:46:35;;;;;;;2.47;1.80;;;22.30;98.00;;;;;;5071848;28;20958;-71
2021/06/11 08:49:02;;;;;;;4.03;1.80;;;22.40;98.00;;;;;;5069151;28;20932;-71
2021/06/11 08:51:30;;;;;;;3.00;1.80;;;22.50;98.00;;;;;;5071512;28;20455;-70
2021/06/11 08:53:57;;;;;;;3.10;1.90;;;22.50;98.00;;;;;;5068817;28;20461;-71
2021/06/11 08:56:23;;;;;;;2.83;2.23;;;22.50;98.00;;;;;;5071687;28;20456;-72
2021/06/11 08:58:53;;;;;;;2.10;1.47;;;22.70;98.00;;;;;;5068227;28;20495;-72
2021/06/11 09:01:20;;;;;;;2.40;2.20;;;22.90;98.00;;;;;;5070640;28;20464;-73
2021/06/11 09:03:48;;;;;;;1.87;1.53;;;23.10;98.00;;;;;;5069292;28;20556;-71
2021/06/11 09:06:17;;;;;;;2.00;1.80;;;23.20;98.00;;;;;;5071368;28;20513;-71
2021/06/11 09:08:51;;;;;;;2.10;1.70;;;23.20;98.00;;;;;;5068005;28;20579;-70
2021/06/11 09:11:20;;;;;;;2.30;1.93;;;23.40;98.00;;;;;;5069738;28;20841;-69
2021/06/11 09:13:49;;;;;;;1.63;1.60;;;23.50;98.00;;;;;;5069215;28;20457;-70
2021/06/11 09:16:19;;;;;;;3.07;1.90;;;23.50;98.00;;;;;;5071436;28;20970;-71
2021/06/11 09:18:51;;;;;;;3.40;2.20;;;23.70;98.00;;;;;;5069073;28;20453;-70
2021/06/11 09:21:33;;;;;;;1.40;1.33;;;23.80;98.00;;;;;;5071277;28;20468;-69
2021/06/11 09:24:15;;;;;;;1.60;1.40;;;23.80;97.00;;;;;;5068737;28;20465;-69
2021/06/11 09:26:42;;;;;;;2.10;1.77;;;23.90;96.70;;;;;;5070655;28;20465;-70
2021/06/11 09:29:23;;;;;;;1.90;1.60;;;24.10;93.60;;;;;;5069257;28;20461;-72
2021/06/11 09:31:51;;;;;;;2.60;1.70;;;24.20;91.90;;;;;;5068956;28;20962;-73
2021/06/11 09:34:22;;;;;;;1.73;1.67;;;24.10;92.30;;;;;;5070734;28;20460;-72
2021/06/11 09:37:00;;;;;;;2.47;1.80;;;24.20;94.90;;;;;;5069555;28;20456;-73
2021/06/11 09:39:43;;;;;;;1.40;1.37;;;24.40;92.80;;;;;;5070998;28;20522;-72
2021/06/11 09:42:12;;;;;;;2.20;1.47;;;24.50;94.50;;;;;;5068563;28;20488;-72
2021/06/11 09:44:39;;;;;;;2.53;2.07;;;24.60;91.70;;;;;;5069613;28;20492;-72
2021/06/11 09:47:07;;;;;;;1.87;1.77;;;24.60;92.90;;;;;;5068299;28;20975;-72
2021/06/11 09:49:45;;;;;;;2.70;1.80;;;24.70;91.80;;;;;;5070726;28;20455;-72
2021/06/11 09:52:12;;;;;;;4.20;2.07;;;24.90;94.20;;;;;;5068379;28;20495;-72
2021/06/11 09:54:39;;;;;;;2.80;1.70;;;24.90;90.50;;;;;;5069400;28;20453;-71
2021/06/11 09:57:20;;;;;;;2.03;1.67;;;24.90;91.60;;;;;;5067194;28;20967;-75
2021/06/11 09:59:49;;;;;;;2.00;1.60;;;24.90;89.00;;;;;;5070458;28;20448;-73
2021/06/11 10:02:20;;;;;;;1.40;1.40;;;25.10;91.50;;;;;;5067976;28;20459;-76
2021/06/11 10:04:47;;;;;;;2.33;1.47;;;25.30;90.60;;;;;;5070050;28;20468;-75
2021/06/11 10:07:14;;;;;;;1.90;1.73;;;25.50;91.90;;;;;;5067445;28;20998;-76
2021/06/11 10:09:42;;;;;;;1.87;1.53;;;25.60;87.40;;;;;;5069854;28;20510;-75
2021/06/11 10:12:10;;;;;;;1.70;1.63;;;25.50;86.40;;;;;;5068259;28;20461;-75
2021/06/11 10:14:36;;;;;;;2.30;1.57;;;25.50;88.80;;;;;;5069808;28;20457;-76
2021/06/11 10:17:05;;;;;;;1.43;1.33;;;25.60;85.50;;;;;;5067911;28;20939;-75
2021/06/11 10:19:35;;;;;;;3.17;1.90;;;25.70;86.90;;;;;;5069871;28;20498;-77
2021/06/11 10:22:01;;;;;;;4.03;2.10;;;25.80;86.70;;;;;;5068611;28;20772;-75
2021/06/11 10:24:29;;;;;;;1.60;1.57;;;26.00;84.00;;;;;;5069583;28;20966;-75
2021/06/11 10:26:55;;;;;;;1.70;1.40;;;26.00;85.00;;;;;;5067972;28;20460;-74
2021/06/11 10:29:22;;;;;;;1.63;1.50;;;26.20;79.80;;;;;;5069827;28;20943;-76
2021/06/11 10:31:49;;;;;;;1.73;1.67;;;26.30;80.40;;;;;;5070056;28;20452;-77
2021/06/11 10:34:16;;;;;;;1.70;1.47;;;26.50;77.00;;;;;;5067625;28;20535;-76
2021/06/11 10:36:46;;;;;;;2.50;1.90;;;26.60;75.40;;;;;;5070110;28;20951;-77
2021/06/11 10:39:26;;;;;;;4.20;1.67;;;26.70;77.50;;;;;;5067225;28;20471;-76
2021/06/11 10:42:01;;;;;;;1.80;1.70;;;26.90;80.70;;;;;;5069621;28;20456;-78
2021/06/11 10:44:33;;;;;;;2.43;1.87;;;27.00;80.40;;;;;;5069740;28;20999;-74
2021/06/11 10:47:25;;;;;;;1.80;1.47;;;27.10;82.60;;;;;;5067370;28;20661;-78
2021/06/11 10:50:13;;;;;;;2.20;1.70;;;27.40;80.80;;;;;;5070081;28;20452;-76
2021/06/11 10:52:45;;;;;;;2.10;1.67;;;27.60;81.00;;;;;;5067605;28;20459;-75
2021/06/11 10:55:49;;;;;;;1.60;1.50;;;27.70;79.40;;;;;;5068377;28;20495;-75
2021/06/11 10:58:24;;;;;;;2.60;1.80;;;27.50;77.50;;;;;;5071289;28;20922;-74
2021/06/11 11:00:51;;;;;;;3.53;2.20;;;27.40;78.20;;;;;;5071978;28;20860;-72
2021/06/11 11:03:34;;;;;;;2.67;2.10;;;27.60;77.90;;;;;;5070697;28;20456;-76
2021/06/11 11:06:30;;;;;;;2.57;1.73;;;27.80;76.10;;;;;;5073431;28;20463;-76
2021/06/11 11:09:02;;;;;;;2.33;1.90;;;27.90;76.50;;;;;;5070801;28;21030;-76
2021/06/11 11:11:34;;;;;;;3.50;1.97;;;28.00;77.10;;;;;;5073449;28;20453;-75
2021/06/11 11:14:02;;;;;;;1.90;1.83;;;28.10;75.10;;;;;;5070467;28;20456;-73
2021/06/11 11:16:35;;;;;;;1.83;1.70;;;28.30;73.00;;;;;;5073451;28;20456;-75
2021/06/11 11:19:03;;;;;;;1.87;1.60;;;28.50;74.90;;;;;;5070110;28;20467;-75
2021/06/11 11:21:31;;;;;;;2.17;1.97;;;28.70;73.70;;;;;;5073500;28;20456;-75
2021/06/11 11:24:00;;;;;;;3.83;2.10;;;28.80;72.80;;;;;;5070439;28;20468;-75
2021/06/11 11:26:45;;;;;;;2.10;2.00;;;29.00;73.40;;;;;;5073159;28;20497;-76
2021/06/11 11:29:13;;;;;;;2.87;2.27;;;29.10;73.20;;;;;;5070634;28;20480;-75
2021/06/11 11:31:40;;;;;;;2.07;1.60;;;29.10;76.10;;;;;;5072861;28;20514;-75
2021/06/11 11:34:07;;;;;;;2.40;2.00;;;29.20;75.10;;;;;;5070589;28;20457;-76
2021/06/11 11:36:34;;;;;;;2.20;1.87;;;29.40;74.60;;;;;;5073124;28;20838;-74
2021/06/11 11:39:05;;;;;;;1.87;1.70;;;29.50;72.90;;;;;;5070366;28;20456;-77
2021/06/11 11:41:33;;;;;;;2.37;1.63;;;29.80;73.40;;;;;;5073120;28;20467;-76
2021/06/11 11:43:59;;;;;;;2.67;2.17;;;29.80;73.60;;;;;;5070385;28;20480;-75
2021/06/11 11:46:28;;;;;;;1.90;1.77;;;30.00;73.40;;;;;;5072827;28;20457;-74
2021/06/11 11:48:55;;;;;;;2.53;1.80;;;29.80;74.30;;;;;;5070795;28;20511;-74
2021/06/11 11:51:22;;;;;;;2.20;1.80;;;29.80;74.50;;;;;;5072732;28;20459;-74
2021/06/11 11:53:48;;;;;;;3.25;2.45;;;30.10;73.80;;;;;;5070384;28;20450;-72
2021/06/11 11:56:17;;;;;;;4.00;2.43;;;29.90;71.70;;;;;;5072911;28;20207;-72
2021/06/11 11:58:44;;;;;;;2.17;1.80;;;29.80;69.80;;;;;;5071382;28;20457;-71
2021/06/11 12:01:11;;;;;;;1.73;1.67;;;29.80;72.50;;;;;;5071685;28;20457;-69
2021/06/11 12:03:38;;;;;;;2.93;2.30;;;29.60;71.10;;;;;;5069137;28;20449;-69
2021/06/11 12:06:05;;;;;;;2.23;1.70;;;29.60;72.40;;;;;;5071595;28;20545;-69
2021/06/11 12:08:31;;;;;;;1.83;1.67;;;29.60;72.60;;;;;;5069863;28;20481;-69
2021/06/11 12:10:58;;;;;;;2.00;1.80;;;29.60;74.40;;;;;;5072400;28;21004;-70
2021/06/11 12:13:26;;;;;;;2.33;1.70;;;29.50;74.90;;;;;;5070522;28;20556;-70
2021/06/11 12:15:53;;;;;;;2.00;1.63;;;29.40;73.90;;;;;;5072659;28;20457;-71
2021/06/11 12:18:19;;;;;;;1.50;1.50;;;29.40;73.20;;;;;;5070254;28;20457;-69
2021/06/11 12:20:46;;;;;;;2.03;1.70;;;29.00;71.90;;;;;;5072204;28;20554;-70
2021/06/11 12:23:12;;;;;;;1.77;1.53;;;28.80;71.80;;;;;;5070307;28;20499;-70
2021/06/11 12:25:39;;;;;;;2.30;1.70;;;28.70;74.40;;;;;;5071106;28;20484;-69
2021/06/11 12:28:06;;;;;;;1.83;1.73;;;28.70;75.30;;;;;;5069942;28;20508;-70
2021/06/11 12:30:34;;;;;;;2.70;1.90;;;29.10;75.30;;;;;;5071947;28;20468;-70
2021/06/11 12:33:00;;;;;;;2.07;1.80;;;29.40;76.00;;;;;;5070068;28;20449;-71
2021/06/11 12:35:27;;;;;;;2.40;1.70;;;29.60;74.80;;;;;;5071912;28;20509;-71
2021/06/11 12:37:54;;;;;;;2.73;2.23;;;29.70;72.70;;;;;;5069458;28;20554;-71
2021/06/11 12:40:21;;;;;;;2.57;1.90;;;29.80;73.20;;;;;;5071812;28;20444;-68
2021/06/11 12:42:52;;;;;;;2.83;1.90;;;30.10;73.80;;;;;;5070002;28;20893;-69
2021/06/11 12:45:18;;;;;;;1.80;1.73;;;29.80;74.30;;;;;;5072349;28;20453;-70
2021/06/11 12:47:46;;;;;;;1.97;1.50;;;29.50;73.70;;;;;;5070198;28;20480;-70
2021/06/11 12:50:13;;;;;;;2.27;1.90;;;29.30;75.20;;;;;;5071874;28;20492;-68
2021/06/11 12:52:40;;;;;;;1.93;1.83;;;29.00;74.90;;;;;;5069497;28;20723;-69
2021/06/11 12:55:09;;;;;;;1.60;1.50;;;28.90;73.10;;;;;;5070391;28;20461;-70